Terminal Aerodrome Forecast
Issued by NWS

Home | Current Version | Previous Version | Text Only | Print | Product List | Glossary On
Versions: 1 2 3 4 5 6 7 8 9 10 11 12 13 14 15
000
FTUS44 KTSA 032324
TAFMLC
TAF
KMLC 032324Z 0400/0424 08007KT 4SM -RA BR SCT007 OVC015
      TEMPO 0400/0404 BKN007
     FM040600 08003KT 2SM -RA BR OVC007
      TEMPO 0408/0412 1SM -RA BR OVC004
     FM041500 33003KT 3SM BR OVC007
     FM041800 35008KT P6SM OVC015
     FM042100 35008KT P6SM SKC=

USA.gov is the U.S. government's official web portal to all federal, state and local government web resources and services.